Hlavní strana
METAR-TAF:

METAR-TAF

Letiště :

Buffalo Narrows, Manitoba, Kanada

zeměpisná šířka: 55-50N, zeměpisná délka: 108-27W, výška: 434 m

Aktuální stav počasí

Zpráva byla vytvořena před 40 minutami, v 18:00 UTC
Západoseverozápadní vítr 3 kt, proměnlivý mezi jihozápadním a severoseverozápadním
Teplota 29°C
Vlhkost vzduchu 25%
Tlak 1011 hPa
Viditelnost: 22.5 km
Skoro jasno ve výšce 9000 ft

METAR: CYVT 231800Z CCA 29003KT 220V340 14SM FEW090 29/07 A2986 RMK CU1 CU TR FU SLP113 DENSITY ALT 3400FT

Čas: 13:40 (18:40 UTC)

Předpověď počasí

Zpráva byla vytvořena před 2 minutami, v 18:38 UTC
Předpověď platná od 23 v 19 UTC do 24 v 04 UTC
vítr z různých směrů 3 kt
Viditelnost: 10 km
Polojasno ve výšce 9000 ft
Změna
od 23 v 20 UTC do 23 v 22 UTC
Jihojihovýchodní vítr 8 kt

TAF: CYVT 231838Z 2319/2404 VRB03KT P6SM SCT090 BECMG 2320/2322 16008KT RMK NXT FCST BY 240100Z

Stav a předpovědi počasí z více než 4 000 letišť (zprávy METAR a TAF).

Červené a žluté tečky na mapě představují dostupné meteorologické stanice.

Když kurzor umístíte na tečku, zobrazí se název stanice.

Pak kliknutím zobrazíte stav a předpověď počasí.

Chcete-li změnit mapu, kliknutím na zelené tlačítko se znaménkem +mapu přiblížíte, kliknutím na zelené tlačítko se znaménkem – mapu oddálíte a kliknutím na zelené šipky přejdete na sousední mapy.


METAR-TAF: